• Join FlightAware (Why Join?)
  • Login
  • US Flag 
11:03AM EST


 

Airport Tracker/Info


-or-


 

Live Flight TrackerFlight Track Log ✈ ACA831 ✈ 30-Jun-2013 ✈ LSGG / GVA - CYUL

Flight Track Log - Related Links

Times and Time Zones

All times are in EDT time to prevent confusion due to time zone crossing. See the ACA831 flight status page for this flight to view local times or setup timezone preferences in your user account.

Time Position Orientation Groundspeed Altitude Reporting Facility
EDT Latitude Longitude Course Direction KTS MPH feet Rate Location/Type
06:31AM 46.2260 6.0920 47° Northeast 4 5  Level FlightAware
06:32AM 46.2290 6.0960 43° Northeast 80 92 2,340 Level FlightAware
06:32AM 46.2470 6.1220 45° Northeast 173 199 1,700 3,300 Climbing FlightAware
06:33AM 46.2670 6.1500 44° Northeast 179 206 3,100 2,220 Climbing FlightAware
06:34AM 46.2990 6.2010 48° Northeast 191 220 4,900 1,860 Climbing FlightAware
06:36AM 46.4186 5.9036 282° West  Level Estimated
06:37AM 46.4786 5.7531 294° West  Level Estimated
06:38AM 46.5384 5.6023 289° West  Level Estimated
06:39AM 46.5980 5.4511 290° West  Level Estimated
06:40AM 46.5902 5.2772 266° West  Level FlightAware Approximate
06:40AM 45.9950 5.6480 266° West 428 493 17,000  Level FlightAware
06:41AM 45.9720 5.5530 251° West 423 487 18,300 2,220 Climbing FlightAware
06:42AM 45.9590 5.2910 266° West 428 493 21,700 2,040 Climbing FlightAware
06:43AM 45.9520 5.1150 267° West 435 501 23,600 1,680 Climbing FlightAware
06:44AM 45.9470 4.9970 267° West 443 510 24,600 1,380 Climbing FlightAware
06:45AM 45.9360 4.7240 300° West 458 527 26,700 1,140 Climbing FlightAware
06:46AM 46.0495 4.7404 300° West  Level Estimated
06:48AM 46.0659 4.3972 300° West  Level Estimated
06:48AM 45.9210 4.1860 300° West 444 511 30,000  Level FlightAware
06:49AM 46.1250 4.2470 300° West  Level Estimated
06:51AM 46.0480 3.8636 300° West  Level Estimated
06:51AM 45.9260 3.7510 300° West 444 511 30,000  Level FlightAware
06:52AM 45.9270 3.5680 271° West 445 512 30,000  Level FlightAware
06:52AM 45.9280 3.4560 271° West 446 513 30,000 240 Level FlightAware
06:53AM 45.9280 3.3370 270° West 445 512 30,400 660 Climbing FlightAware
06:54AM 45.9290 3.2060 271° West 445 512 31,000 840 Climbing FlightAware
06:55AM 45.9300 3.0530 271° West 443 510 31,800 540 Climbing FlightAware
06:56AM 45.9300 2.8850 270° West 442 509 32,000  Climbing FlightAware
06:58AM 46.0344 2.6135 299° West  Level Estimated
06:59AM 46.0922 2.4623 299° West  Level Estimated
06:59AM 45.9300 2.3730 299° West 439 505 32,000  Level FlightAware
06:59AM 45.9290 2.2510 269° West 440 506 32,000  Level FlightAware
07:01AM 45.9280 1.9810 270° West 442 509 32,000  Level FlightAware
07:02AM 45.9270 1.8720 269° West 442 509 32,000  Level FlightAware
07:03AM 45.9260 1.7040 270° West 443 510 32,000  Level FlightAware
07:03AM 45.9250 1.5620 269° West 444 511 32,000  Level FlightAware
07:04AM 45.9240 1.4410 269° West 445 512 32,000  Level FlightAware
07:05AM 45.8990 1.2070 261° West 447 514 32,000  Level FlightAware
07:06AM 45.8800 1.0770 258° West 448 516 32,000  Level FlightAware
07:07AM 45.8620 0.9520 258° West 450 518 32,000  Level FlightAware
07:07AM 45.8450 0.8320 259° West 450 518 32,000  Level FlightAware
07:08AM 45.8270 0.7050 259° West 451 519 32,000  Level FlightAware
07:09AM 45.8100 0.5880 258° West 452 520 32,000  Level FlightAware
07:10AM 45.7870 0.3920 261° West 453 521 32,000  Level FlightAware
07:12AM 45.7910 0.0990 271° West 453 521 32,000  Level FlightAware
07:12AM 45.7940 -0.0380 272° West 453 521 32,000  Level FlightAware
07:13AM 45.7970 -0.1770 272° West 452 520 32,000  Level FlightAware
07:14AM 45.8000 -0.2940 272° West 451 519 32,000  Level FlightAware
07:16AM 45.8955 -0.5555 298° West  Level Estimated
07:17AM 45.9508 -0.7082 298° West  Level Estimated
07:18AM 46.0059 -0.8612 297° West  Level Estimated
07:19AM 46.0608 -1.0145 297° West  Level Estimated
07:20AM 46.1156 -1.1682 297° West  Level Estimated
07:21AM 46.1701 -1.3221 297° West  Level Estimated
07:22AM 46.2244 -1.4764 297° West  Level Estimated
07:23AM 46.2785 -1.6309 297° West  Level Estimated
07:24AM 46.3324 -1.7858 297° West  Level Estimated
07:25AM 46.3860 -1.9410 297° West  Level Estimated
07:26AM 46.4395 -2.0964 297° West  Level Estimated
07:27AM 46.4928 -2.2522 296° West  Level Estimated
07:28AM 46.5458 -2.4083 296° West  Level Estimated
07:28AM 45.8960 -2.4820 296° West 456 525 32,000  Level FlightAware
07:29AM 46.5986 -2.5647 296° West  Level Estimated
07:29AM 45.9020 -2.6470 273° West 456 525 32,000  Level FlightAware
07:30AM 45.9270 -3.2030 274° West 459 528 32,000  Level FlightAware
07:31AM 45.9330 -3.3750 273° West 458 527 32,000  Level FlightAware
07:32AM 45.9390 -3.5480 273° West 456 525 32,000  Level FlightAware
07:35AM 46.0820 -3.9689 296° West  Level Estimated
07:36AM 46.1343 -4.1243 296° West  Level Estimated
07:37AM 46.1863 -4.2801 296° West  Level Estimated
07:37AM 45.9680 -4.5710 296° West 452 520 32,000  Level FlightAware
07:38AM 46.2381 -4.4362 296° West  Level Estimated
07:38AM 45.9710 -4.6990 272° West 452 520 32,000  Level FlightAware
07:39AM 45.9740 -4.8300 272° West 452 520 32,000  Level FlightAware
07:39AM 45.9770 -4.9380 272° West 452 520 32,000  Level FlightAware
07:40AM 45.9800 -5.1040 272° West 453 521 32,000  Level FlightAware
07:42AM 45.9850 -5.3920 272° West 454 522 32,000  Level FlightAware
07:44AM 45.9890 -5.6970 271° West 454 522 32,000 -120 Level FlightAware
07:47AM 46.1194 -6.0982 295° West  Level Estimated
07:48AM 46.1698 -6.2550 295° West  Level Estimated
07:49AM 46.2201 -6.4121 295° West  Level Estimated
07:50AM 46.2701 -6.5695 295° West  Level Estimated
07:51AM 46.3199 -6.7272 295° West  Level Estimated
07:52AM 46.3694 -6.8851 295° West  Level Estimated
07:53AM 46.4188 -7.0434 294° West  Level Estimated
07:54AM 46.4679 -7.2019 294° West  Level Estimated
07:55AM 46.5168 -7.3607 294° West  Level Estimated
07:56AM 46.5655 -7.5198 294° West  Level Estimated
07:57AM 46.6140 -7.6792 294° West  Level Estimated
07:58AM 46.6622 -7.8389 294° West  Level Estimated
07:59AM 46.7103 -7.9989 294° West  Level Estimated
08:00AM 46.7581 -8.1591 294° West  Level Estimated
08:01AM 46.8056 -8.3197 293° West  Level Estimated
08:02AM 46.8530 -8.4805 293° West  Level Estimated
08:03AM 46.9001 -8.6416 293° West  Level Estimated
08:04AM 46.9472 -8.8036 293° West  Level Estimated
08:05AM 46.9941 -8.9660 293° West  Level Estimated
08:06AM 47.0408 -9.1287 293° West  Level Estimated
08:07AM 47.0872 -9.2916 293° West  Level Estimated
08:08AM 47.1334 -9.4548 293° West  Level Estimated
08:09AM 47.1793 -9.6183 293° West  Level Estimated
08:10AM 47.2251 -9.7821 292° West  Level Estimated
08:11AM 47.2705 -9.9462 292° West  Level Estimated
08:12AM 47.3158 -10.1105 292° West  Level Estimated
08:12AM 45.9330 -10.5830 292° West 442 509 30,000  Level FlightAware
08:13AM 45.9140 -10.8940 265° West 441 507 30,000  Level FlightAware
08:15AM 45.8940 -11.2240 265° West 439 505 30,000  Level FlightAware
08:17AM 45.9797 -11.5162 293° West  Level Estimated
08:17AM 45.8760 -11.5250 293° West 439 505 30,000  Level FlightAware
08:20AM 46.0060 -11.9719 293° West  Level Estimated
08:21AM 46.0520 -12.1320 293° West  Level Estimated
08:22AM 46.0978 -12.2923 292° West  Level Estimated
08:23AM 46.1434 -12.4530 292° West  Level Estimated
08:24AM 46.1887 -12.6139 292° West  Level Estimated
08:25AM 46.2338 -12.7750 292° West  Level Estimated
08:26AM 46.2787 -12.9365 292° West  Level Estimated
08:27AM 46.3234 -13.0981 292° West  Level Estimated
08:28AM 46.3678 -13.2601 292° West  Level Estimated
08:29AM 46.4120 -13.4223 292° West  Level Estimated
08:30AM 46.4560 -13.5848 291° West  Level Estimated
08:31AM 46.4997 -13.7475 291° West  Level Estimated
08:32AM 46.5432 -13.9105 291° West  Level Estimated
08:33AM 46.5865 -14.0738 291° West  Level Estimated
08:34AM 46.6295 -14.2373 291° West  Level Estimated
08:35AM 46.6723 -14.4011 291° West  Level Estimated
08:36AM 46.7149 -14.5651 291° West  Level Estimated
08:37AM 46.7573 -14.7294 291° West  Level Estimated
08:38AM 46.7994 -14.8940 291° West  Level Estimated
08:39AM 46.8412 -15.0588 290° West  Level Estimated
08:40AM 46.8829 -15.2239 290° West  Level Estimated
08:41AM 46.9243 -15.3892 290° West  Level Estimated
08:42AM 46.9654 -15.5548 290° West  Level Estimated
08:43AM 47.0063 -15.7206 290° West  Level Estimated
08:44AM 47.0470 -15.8867 290° West  Level Estimated
08:45AM 47.0875 -16.0531 290° West  Level Estimated
08:46AM 47.1277 -16.2197 290° West  Level Estimated
08:47AM 47.1676 -16.3865 289° West  Level Estimated
08:48AM 47.2073 -16.5536 289° West  Level Estimated
08:49AM 47.2468 -16.7210 289° West  Level Estimated
08:50AM 47.2860 -16.8886 289° West  Level Estimated
08:51AM 47.3250 -17.0564 289° West  Level Estimated
08:52AM 47.3637 -17.2245 289° West  Level Estimated
08:53AM 47.4022 -17.3928 289° West  Level Estimated
08:54AM 47.4404 -17.5614 289° West  Level Estimated
08:55AM 47.4784 -17.7302 288° West  Level Estimated
08:56AM 47.5162 -17.8993 288° West  Level Estimated
08:57AM 47.5537 -18.0686 288° West  Level Estimated
08:58AM 47.5909 -18.2382 288° West  Level Estimated
08:59AM 47.6277 -18.4068 288° West  Level Estimated
09:00AM 47.6642 -18.5756 288° West  Level Estimated
09:01AM 47.7004 -18.7447 288° West  Level Estimated
09:02AM 47.7364 -18.9140 288° West  Level Estimated
09:03AM 47.7722 -19.0836 287° West  Level Estimated
09:04AM 47.8077 -19.2534 287° West  Level Estimated
09:05AM 47.8429 -19.4234 287° West  Level Estimated
09:06AM 47.8779 -19.5937 287° West  Level Estimated
09:07AM 47.9126 -19.7641 287° West  Level Estimated
09:07AM 45.0000 -20.0000 274° West 446 513 30,000  Level ETMS Enhanced Traffic Management System
09:08AM 47.9471 -19.9348 287° West  Level Estimated
09:09AM 47.9814 -20.1058 287° West  Level Estimated
09:10AM 48.0154 -20.2769 287° West  Level Estimated
09:11AM 48.0491 -20.4483 286° West  Level Estimated
09:12AM 48.0826 -20.6199 286° West  Level Estimated
09:13AM 45.0527 -21.4013 273° West 446 513 30,000  Level FlightAware Transoceanic
09:14AM 45.0581 -21.5766 272° West 446 513 30,000  Level FlightAware Transoceanic
09:15AM 45.0632 -21.7520 272° West 446 513 30,000  Level FlightAware Transoceanic
09:16AM 45.0680 -21.9274 272° West 446 513 30,000  Level FlightAware Transoceanic
09:17AM 45.0726 -22.1028 272° West 446 513 30,000  Level FlightAware Transoceanic
09:18AM 45.0769 -22.2783 272° West 446 513 30,000  Level FlightAware Transoceanic
09:19AM 45.0809 -22.4537 272° West 446 513 30,000  Level FlightAware Transoceanic
09:20AM 45.0847 -22.6292 272° West 446 513 30,000  Level FlightAware Transoceanic
09:21AM 45.0882 -22.8048 272° West 446 513 30,000  Level FlightAware Transoceanic
09:22AM 45.0914 -22.9803 271° West 446 513 30,000  Level FlightAware Transoceanic
09:23AM 45.0944 -23.1559 271° West 446 513 30,000  Level FlightAware Transoceanic
09:24AM 45.0971 -23.3314 271° West 446 513 30,000  Level FlightAware Transoceanic
09:25AM 45.0995 -23.5070 271° West 446 513 30,000  Level FlightAware Transoceanic
09:26AM 45.1017 -23.6826 271° West 446 513 30,000  Level FlightAware Transoceanic
09:27AM 45.1035 -23.8583 271° West 446 513 30,000  Level FlightAware Transoceanic
09:28AM 45.1051 -24.0339 271° West 446 513 30,000  Level FlightAware Transoceanic
09:29AM 45.1065 -24.2095 271° West 446 513 30,000  Level FlightAware Transoceanic
09:30AM 45.1076 -24.3852 270° West 446 513 30,000  Level FlightAware Transoceanic
09:31AM 45.1084 -24.5609 270° West 446 513 30,000  Level FlightAware Transoceanic
09:32AM 45.1089 -24.7365 270° West 446 513 30,000  Level FlightAware Transoceanic
09:33AM 45.1092 -24.9122 270° West 446 513 30,000  Level FlightAware Transoceanic
09:34AM 45.1092 -25.0878 270° West 446 513 30,000  Level FlightAware Transoceanic
09:35AM 45.1089 -25.2635 270° West 446 513 30,000  Level FlightAware Transoceanic
09:36AM 45.1084 -25.4391 270° West 446 513 30,000  Level FlightAware Transoceanic
09:37AM 45.1076 -25.6148 270° West 446 513 30,000  Level FlightAware Transoceanic
09:38AM 45.1065 -25.7905 269° West 446 513 30,000  Level FlightAware Transoceanic
09:39AM 45.1051 -25.9661 269° West 446 513 30,000  Level FlightAware Transoceanic
09:40AM 45.1035 -26.1417 269° West 446 513 30,000  Level FlightAware Transoceanic
09:41AM 45.1017 -26.3174 269° West 446 513 30,000  Level FlightAware Transoceanic
09:42AM 45.0995 -26.4930 269° West 446 513 30,000  Level FlightAware Transoceanic
09:43AM 45.0971 -26.6686 269° West 446 513 30,000  Level FlightAware Transoceanic
09:44AM 45.0944 -26.8441 269° West 446 513 30,000  Level FlightAware Transoceanic
09:45AM 45.0914 -27.0197 269° West 446 513 30,000  Level FlightAware Transoceanic
09:46AM 45.0882 -27.1952 268° West 446 513 30,000  Level FlightAware Transoceanic
09:47AM 45.0847 -27.3708 268° West 446 513 30,000  Level FlightAware Transoceanic
09:48AM 45.0809 -27.5463 268° West 446 513 30,000  Level FlightAware Transoceanic
09:49AM 45.0769 -27.7217 268° West 446 513 30,000  Level FlightAware Transoceanic
09:50AM 45.0726 -27.8972 268° West 446 513 30,000  Level FlightAware Transoceanic
09:51AM 45.0680 -28.0726 268° West 446 513 30,000  Level FlightAware Transoceanic
09:52AM 45.0632 -28.2480 268° West 446 513 30,000  Level FlightAware Transoceanic
09:53AM 45.0581 -28.4234 268° West 446 513 30,000  Level FlightAware Transoceanic
09:54AM 45.0527 -28.5987 267° West 446 513 30,000  Level FlightAware Transoceanic
09:55AM 45.0470 -28.7740 267° West 446 513 30,000  Level FlightAware Transoceanic
09:56AM 45.0411 -28.9493 267° West 446 513 30,000  Level FlightAware Transoceanic
09:57AM 45.0349 -29.1245 267° West 446 513 30,000  Level FlightAware Transoceanic
09:58AM 45.0285 -29.2997 267° West 446 513 30,000  Level FlightAware Transoceanic
09:59AM 45.0218 -29.4748 267° West 446 513 30,000  Level FlightAware Transoceanic
10:00AM 45.0148 -29.6499 267° West 446 513 30,000  Level FlightAware Transoceanic
10:01AM 45.0075 -29.8250 267° West 446 513 30,000  Level FlightAware Transoceanic
10:02AM 45.0003 -29.9936 267° West  Level FlightAware Approximate
10:03AM 44.9927 -30.1622 266° West  Level FlightAware Approximate
10:04AM 45.0066 -30.1559 273° West  Level FlightAware Approximate
10:04AM 45.0000 -30.0000 274° West 454 522 30,000  Level ETMS Enhanced Traffic Management System
10:05AM 45.0135 -30.3246 273° West  Level FlightAware Approximate
10:06AM 45.0202 -30.4934 273° West  Level FlightAware Approximate
10:07AM 45.0266 -30.6622 273° West  Level FlightAware Approximate
10:08AM 45.0327 -30.8310 273° West  Level FlightAware Approximate
10:09AM 45.0387 -30.9998 273° West  Level FlightAware Approximate
10:10AM 45.0535 -31.4263 273° West 454 522 30,000  Level FlightAware Transoceanic
10:11AM 45.0589 -31.6048 272° West 454 522 30,000  Level FlightAware Transoceanic
10:12AM 45.0640 -31.7833 272° West 454 522 30,000  Level FlightAware Transoceanic
10:13AM 45.0689 -31.9618 272° West 454 522 30,000  Level FlightAware Transoceanic
10:14AM 45.0735 -32.1404 272° West 454 522 30,000  Level FlightAware Transoceanic
10:15AM 45.0779 -32.3190 272° West 454 522 30,000  Level FlightAware Transoceanic
10:16AM 45.0819 -32.4976 272° West 454 522 30,000  Level FlightAware Transoceanic
10:17AM 45.0857 -32.6763 272° West 454 522 30,000  Level FlightAware Transoceanic
10:18AM 45.0891 -32.8549 272° West 454 522 30,000  Level FlightAware Transoceanic
10:19AM 45.0924 -33.0336 271° West 454 522 30,000  Level FlightAware Transoceanic
10:20AM 45.0953 -33.2123 271° West 454 522 30,000  Level FlightAware Transoceanic
10:21AM 45.0979 -33.3910 271° West 454 522 30,000  Level FlightAware Transoceanic
10:22AM 45.1003 -33.5698 271° West 454 522 30,000  Level FlightAware Transoceanic
10:23AM 45.1024 -33.7485 271° West 454 522 30,000  Level FlightAware Transoceanic
10:24AM 45.1042 -33.9273 271° West 454 522 30,000  Level FlightAware Transoceanic
10:25AM 45.1057 -34.1060 271° West 454 522 30,000  Level FlightAware Transoceanic
10:26AM 45.1070 -34.2848 271° West 454 522 30,000  Level FlightAware Transoceanic
10:27AM 45.1080 -34.4636 270° West 454 522 30,000  Level FlightAware Transoceanic
10:28AM 45.1087 -34.6424 270° West 454 522 30,000  Level FlightAware Transoceanic
10:29AM 45.1091 -34.8212 270° West 454 522 30,000  Level FlightAware Transoceanic
10:30AM 45.1092 -35.0000 270° West 454 522 30,000  Level FlightAware Transoceanic
10:31AM 45.1091 -35.1788 270° West 454 522 30,000  Level FlightAware Transoceanic
10:32AM 45.1087 -35.3576 270° West 454 522 30,000  Level FlightAware Transoceanic
10:33AM 45.1080 -35.5364 270° West 454 522 30,000  Level FlightAware Transoceanic
10:34AM 45.1070 -35.7152 269° West 454 522 30,000  Level FlightAware Transoceanic
10:35AM 45.1057 -35.8940 269° West 454 522 30,000  Level FlightAware Transoceanic
10:36AM 45.1042 -36.0727 269° West 454 522 30,000  Level FlightAware Transoceanic
10:37AM 45.1024 -36.2515 269° West 454 522 30,000  Level FlightAware Transoceanic
10:38AM 45.1003 -36.4302 269° West 454 522 30,000  Level FlightAware Transoceanic
10:39AM 45.0979 -36.6090 269° West 454 522 30,000  Level FlightAware Transoceanic
10:40AM 45.0953 -36.7877 269° West 454 522 30,000  Level FlightAware Transoceanic
10:41AM 45.0924 -36.9664 269° West 454 522 30,000  Level FlightAware Transoceanic
10:42AM 45.0891 -37.1451 268° West 454 522 30,000  Level FlightAware Transoceanic
10:43AM 45.0857 -37.3237 268° West 454 522 30,000  Level FlightAware Transoceanic
10:44AM 45.0819 -37.5024 268° West 454 522 30,000  Level FlightAware Transoceanic
10:45AM 45.0779 -37.6810 268° West 454 522 30,000  Level FlightAware Transoceanic
10:46AM 45.0735 -37.8596 268° West 454 522 30,000  Level FlightAware Transoceanic
10:47AM 45.0689 -38.0382 268° West 454 522 30,000  Level FlightAware Transoceanic
10:48AM 45.0640 -38.2167 268° West 454 522 30,000  Level FlightAware Transoceanic
10:49AM 45.0589 -38.3952 268° West 454 522 30,000  Level FlightAware Transoceanic
10:50AM 45.0535 -38.5737 267° West 454 522 30,000  Level FlightAware Transoceanic
10:51AM 45.0477 -38.7521 267° West 454 522 30,000  Level FlightAware Transoceanic
10:52AM 45.0418 -38.9305 267° West 454 522 30,000  Level FlightAware Transoceanic
10:53AM 45.0355 -39.1088 267° West 454 522 30,000  Level FlightAware Transoceanic
10:54AM 45.0289 -39.2872 267° West 454 522 30,000  Level FlightAware Transoceanic
10:55AM 45.0221 -39.4654 267° West 454 522 30,000  Level FlightAware Transoceanic
10:56AM 45.0150 -39.6437 267° West 454 522 30,000  Level FlightAware Transoceanic
10:57AM 45.0076 -39.8219 267° West 454 522 30,000  Level FlightAware Transoceanic
10:58AM 45.0004 -39.9905 267° West  Level FlightAware Approximate
10:59AM 44.9930 -40.1591 267° West  Level FlightAware Approximate
11:00AM 45.0064 -40.1497 273° West  Level FlightAware Approximate
11:01AM 45.0133 -40.3184 273° West  Level FlightAware Approximate
11:02AM 45.0200 -40.4871 273° West  Level FlightAware Approximate
11:03AM 45.0264 -40.6559 273° West  Level FlightAware Approximate
11:03AM 45.0000 -40.0000 274° West 471 542 30,000  Level ETMS Enhanced Traffic Management System
11:04AM 45.0326 -40.8247 273° West  Level FlightAware Approximate
11:05AM 45.0387 -40.9971 273° West  Level FlightAware Approximate
11:06AM 45.0445 -41.1695 273° West  Level FlightAware Approximate
11:07AM 45.0500 -41.3420 273° West  Level FlightAware Approximate
11:08AM 45.0553 -41.5145 273° West  Level FlightAware Approximate
11:09AM 45.0708 -42.0346 272° West 471 542 30,000  Level FlightAware Transoceanic
11:10AM 45.0755 -42.2198 272° West 471 542 30,000  Level FlightAware Transoceanic
11:11AM 45.0798 -42.4050 272° West 471 542 30,000  Level FlightAware Transoceanic
11:12AM 45.0839 -42.5902 272° West 471 542 30,000  Level FlightAware Transoceanic
11:13AM 45.0876 -42.7755 272° West 471 542 30,000  Level FlightAware Transoceanic
11:14AM 45.0911 -42.9608 271° West 471 542 30,000  Level FlightAware Transoceanic
11:15AM 45.0942 -43.1461 271° West 471 542 30,000  Level FlightAware Transoceanic
11:16AM 45.0971 -43.3314 271° West 471 542 30,000  Level FlightAware Transoceanic
11:17AM 45.0996 -43.5168 271° West 471 542 30,000  Level FlightAware Transoceanic
11:18AM 45.1019 -43.7022 271° West 471 542 30,000  Level FlightAware Transoceanic
11:19AM 45.1038 -43.8875 271° West 471 542 30,000  Level FlightAware Transoceanic
11:20AM 45.1055 -44.0729 271° West 471 542 30,000  Level FlightAware Transoceanic
11:21AM 45.1068 -44.2583 271° West 471 542 30,000  Level FlightAware Transoceanic
11:22AM 45.1079 -44.4437 270° West 471 542 30,000  Level FlightAware Transoceanic
11:23AM 45.1086 -44.6292 270° West 471 542 30,000  Level FlightAware Transoceanic
11:24AM 45.1091 -44.8146 270° West 471 542 30,000  Level FlightAware Transoceanic
11:25AM 45.1092 -45.0000 270° West 471 542 30,000  Level FlightAware Transoceanic
11:26AM 45.1091 -45.1854 270° West 471 542 30,000  Level FlightAware Transoceanic
11:27AM 45.1086 -45.3708 270° West 471 542 30,000  Level FlightAware Transoceanic
11:28AM 45.1079 -45.5563 270° West 471 542 30,000  Level FlightAware Transoceanic
11:29AM 45.1068 -45.7417 269° West 471 542 30,000  Level FlightAware Transoceanic
11:30AM 45.1055 -45.9271 269° West 471 542 30,000  Level FlightAware Transoceanic
11:31AM 45.1038 -46.1125 269° West 471 542 30,000  Level FlightAware Transoceanic
11:32AM 45.1019 -46.2978 269° West 471 542 30,000  Level FlightAware Transoceanic
11:33AM 45.0996 -46.4832 269° West 471 542 30,000  Level FlightAware Transoceanic
11:34AM 45.0971 -46.6686 269° West 471 542 30,000  Level FlightAware Transoceanic
11:35AM 45.0942 -46.8539 269° West 471 542 30,000  Level FlightAware Transoceanic
11:36AM 45.0911 -47.0392 269° West 471 542 30,000  Level FlightAware Transoceanic
11:37AM 45.0876 -47.2245 268° West 471 542 30,000  Level FlightAware Transoceanic
11:38AM 45.0839 -47.4098 268° West 471 542 30,000  Level FlightAware Transoceanic
11:39AM 45.0798 -47.5950 268° West 471 542 30,000  Level FlightAware Transoceanic
11:40AM 45.0755 -47.7802 268° West 471 542 30,000  Level FlightAware Transoceanic
11:41AM 45.0708 -47.9654 268° West 471 542 30,000  Level FlightAware Transoceanic
11:42AM 45.0659 -48.1506 268° West 471 542 30,000  Level FlightAware Transoceanic
11:43AM 45.0606 -48.3357 268° West 471 542 30,000  Level FlightAware Transoceanic
11:44AM 45.0551 -48.5208 268° West 471 542 30,000  Level FlightAware Transoceanic
11:45AM 45.0493 -48.7058 267° West 471 542 30,000  Level FlightAware Transoceanic
11:46AM 45.0431 -48.8908 267° West 471 542 30,000  Level FlightAware Transoceanic
11:47AM 45.0367 -49.0758 267° West 471 542 30,000  Level FlightAware Transoceanic
11:48AM 45.0299 -49.2607 267° West 471 542 30,000  Level FlightAware Transoceanic
11:49AM 45.0229 -49.4456 267° West 471 542 30,000  Level FlightAware Transoceanic
11:50AM 45.0156 -49.6305 267° West 471 542 30,000  Level FlightAware Transoceanic
11:51AM 45.0079 -49.8153 267° West 471 542 30,000  Level FlightAware Transoceanic
11:52AM 44.9998 -49.9874 266° West  Level FlightAware Approximate
11:53AM 45.0077 -49.8152 86° East  Level FlightAware Approximate
11:54AM 45.0000 -50.0000 265° West 511 588 30,000  Level ETMS Enhanced Traffic Management System
11:54AM 45.0290 -49.9852 265° West  Level Estimated
11:55AM 45.0135 -50.1563 263° West  Level FlightAware Approximate
11:55AM 44.9667 -50.5500 264° West 470 541 30,000  Level Gander Center
11:56AM 44.9978 -50.3271 263° West  Level FlightAware Approximate
11:56AM 44.9500 -50.7333 263° West 410 472 30,000  Level Gander Center
11:57AM 44.9818 -50.4977 263° West  Level FlightAware Approximate
11:57AM 44.9833 -50.9000 286° West 460 529 30,000  Level Gander Center
11:58AM 44.9656 -50.6682 262° West  Level FlightAware Approximate
11:58AM 45.0000 -51.0833 277° West 460 529 30,000  Level Gander Center
11:59AM 44.9492 -50.8386 262° West  Level FlightAware Approximate
11:59AM 45.0500 -51.2667 291° West 470 541 30,300  Level Gander Center
12:00PM 44.9323 -51.0129 264° West  Level FlightAware Approximate
12:00PM 45.0667 -51.4167 279° West 470 541 31,600  Level Gander Center
12:01PM 45.1167 -51.6000 291° West 460 529 33,200 1,500 Climbing Gander Center
12:02PM 45.1333 -51.7667 278° West 460 529 34,600 1,200 Climbing Gander Center
12:03PM 45.1667 -51.9500 285° West 450 518 35,700 660 Climbing Gander Center
12:04PM 45.2167 -52.1333 291° West 450 518 36,000 120 Climbing Gander Center
12:05PM 45.2333 -52.3000 278° West 460 529 36,000  Level Gander Center
12:06PM 45.2667 -52.4833 285° West 460 529 36,000  Level Gander Center
12:07PM 45.2833 -52.6500 278° West 450 518 36,000  Level Gander Center
12:08PM 45.3167 -52.7667 292° West 450 518 36,000  Level Moncton Center
12:09PM 45.3333 -52.9333 278° West 450 518 36,000  Level Moncton Center
12:10PM 45.3667 -53.1167 285° West 450 518 36,000  Level Moncton Center
12:11PM 45.4000 -53.2667 288° West 450 518 36,000  Level Moncton Center
12:12PM 45.4333 -53.4500 285° West 450 518 36,000  Level Moncton Center
12:13PM 45.4500 -53.6167 278° West 460 529 36,000  Level Moncton Center
12:14PM 45.4833 -53.8000 285° West 470 541 36,000  Level Moncton Center
12:15PM 45.5167 -54.0000 283° West 450 518 36,000  Level Moncton Center
12:16PM 45.5333 -54.1500 279° West 450 518 36,000  Level Moncton Center
12:16PM 45.5667 -54.2667 292° West 460 529 36,000  Level Gander Center
12:17PM 45.6000 -54.4667 283° West 450 518 36,000  Level Gander Center
12:18PM 45.6167 -54.5833 282° West 450 518 36,000  Level Gander Center
12:19PM 45.6333 -54.6667 286° West 450 518 36,000  Level Moncton Center
12:20PM 45.6500 -54.8500 277° West 460 529 36,000  Level Moncton Center
12:21PM 45.6833 -55.0500 283° West 450 518 36,000  Level Moncton Center
12:22PM 45.7167 -55.2000 288° West 450 518 36,000  Level Moncton Center
12:23PM 45.7500 -55.4000 284° West 450 518 36,000  Level Moncton Center
12:24PM 45.7667 -55.5667 278° West 440 506 36,000  Level Moncton Center
12:25PM 45.7833 -55.7167 279° West 450 518 36,000  Level Moncton Center
12:31PM 45.9440 -56.7410 279° West 434 499 36,000  Level FlightAware
12:35PM 46.0500 -57.5300 281° West 431 496 36,000 300 Level FlightAware
12:36PM 46.0840 -57.7970 280° West 423 487 37,800 420 Climbing FlightAware
12:40PM 46.1520 -58.3360 281° West 415 478 38,000  Climbing FlightAware
12:41PM 46.1500 -58.4333 281° West 410 472 38,000  Level Moncton Center
12:42PM 46.1833 -58.6000 286° West 410 472 38,000  Level Moncton Center
12:43PM 46.1833 -58.7667 270° West 410 472 38,000  Level Moncton Center
12:48PM 46.3140 -59.7340 270° West 393 452 38,000  Level FlightAware
12:49PM 46.3260 -59.8390 279° West 392 451 38,000  Level FlightAware
12:50PM 46.3370 -59.9410 279° West 392 451 38,000  Level FlightAware
12:50PM 46.3470 -60.0430 278° West 392 451 38,000  Level FlightAware
12:51PM 46.3630 -60.1890 279° West 394 453 38,000  Level FlightAware
12:52PM 46.3760 -60.3160 278° West 393 452 38,000  Level FlightAware
12:54PM 46.4010 -60.5600 279° West 396 456 38,000  Level FlightAware
12:56PM 46.4380 -60.9300 278° West 400 460 38,000  Level FlightAware
12:59PM 46.4890 -61.4600 278° West 403 464 38,000  Level FlightAware
01:01PM 46.5000 -61.6333 278° West 400 460 38,000  Level Moncton Center
01:02PM 46.5000 -61.7667 270° West 400 460 38,000  Level Moncton Center
01:03PM 46.5167 -61.9333 278° West 390 449 38,000  Level Moncton Center
01:04PM 46.5333 -62.0833 279° West 400 460 38,000  Level Moncton Center
01:05PM 46.5333 -62.2500 270° West 390 449 38,000  Level Moncton Center
01:11PM 46.6330 -63.1570 270° West 388 447 38,000  Level FlightAware
01:12PM 46.6450 -63.3210 276° West 388 447 38,000  Level FlightAware
01:13PM 46.6590 -63.5160 276° West 388 447 38,000  Level FlightAware
01:14PM 46.6680 -63.6480 276° West 388 447 38,000  Level FlightAware
01:16PM 46.6833 -63.9833 276° West 390 449 38,000  Level Moncton Center
01:17PM 46.7000 -64.1333 279° West 380 437 38,000  Level Moncton Center
01:18PM 46.7167 -64.2833 279° West 380 437 38,000  Level Moncton Center
01:19PM 46.7167 -64.4500 270° West 380 437 38,000  Level Moncton Center
01:20PM 46.7333 -64.6000 279° West 380 437 38,000  Level Moncton Center
01:21PM 46.7333 -64.7333 270° West 380 437 38,000  Level Moncton Center
01:22PM 46.7500 -64.9167 278° West 380 437 38,000  Level Moncton Center
01:23PM 46.7667 -65.0500 280° West 380 437 38,000  Level Moncton Center
01:24PM 46.7667 -65.2333 270° West 380 437 38,000  Level Moncton Center
01:25PM 46.7833 -65.3667 280° West 380 437 38,000  Level Moncton Center
01:26PM 46.7833 -65.5167 270° West 380 437 38,000  Level Moncton Center
01:27PM 46.7833 -65.6667 270° West 380 437 38,000  Level Moncton Center
01:28PM 46.8000 -65.8333 278° West 380 437 38,000  Level Moncton Center
01:29PM 46.8000 -65.9833 270° West 380 437 38,000  Level Moncton Center
01:30PM 46.8167 -66.1333 279° West 380 437 38,000  Level Moncton Center
01:31PM 46.8333 -66.3000 278° West 380 437 38,000  Level Moncton Center
01:32PM 46.8333 -66.4500 270° West 380 437 38,000  Level Moncton Center
01:33PM 46.8500 -66.6000 279° West 380 437 38,000  Level Moncton Center
01:34PM 46.8333 -66.7500 261° West 380 437 38,000  Level Moncton Center
01:35PM 46.8500 -66.9167 278° West 380 437 38,000  Level Moncton Center
01:41PM 46.6840 -67.8610 278° West 372 428 38,000  Level FlightAware
01:42PM 46.6500 -67.9970 250° West 372 428 38,000  Level FlightAware
01:44PM 46.6150 -68.1390 250° West 372 428 38,000  Level FlightAware
01:45PM 46.5667 -68.3333 250° West 360 414 38,000  Level Moncton Center
01:47PM 46.5022 -68.6183 252° West 375 432 38,000  Level Boston Center
01:48PM 46.4672 -68.7561 250° West 375 432 38,000  Level Boston Center
01:49PM 46.4319 -68.8969 250° West 375 432 38,000  Level Boston Center
01:50PM 46.3989 -69.0406 252° West 375 432 38,000  Level Boston Center
01:51PM 46.3500 -69.1667 241° Southwest 360 414 38,000  Level Moncton Center
01:56PM 46.1710 -69.9210 241° Southwest 368 423 38,000  Level FlightAware
01:57PM 46.1333 -70.0333 241° Southwest 360 414 38,000  Level Montreal Center
01:58PM 46.0833 -70.1833 244° Southwest 370 426 38,000 -60 Level Montreal Center
02:04PM 45.9090 -71.0290 244° Southwest 368 423 37,600 -1,020 Descending FlightAware
02:10PM 45.8320 -71.8910 263° West 339 390 26,400 -1,920 Descending FlightAware
02:12PM 45.8030 -72.1840 262° West 332 382 22,500 -1,740 Descending FlightAware
02:17PM 45.7333 -72.7667 219° Southwest 320 368 14,300 -1,680 Descending Montreal Center
02:18PM 45.7380 -72.8440 262° West 315 362 13,600 -1,920 Descending FlightAware
02:18PM 45.7167 -72.9000 260° West 310 357 12,400 -2,580 Descending Montreal Center
02:19PM 45.7000 -73.0167 258° West 320 368 10,200 -1,440 Descending Montreal Center
02:20PM 45.6833 -73.1333 258° West 290 334 9,600 -1,080 Descending Montreal Center
02:21PM 45.6667 -73.2333 257° West 260 299 8,100 -2,100 Descending Montreal Center
02:22PM 45.6667 -73.3333 270° West 260 299 5,400 -2,100 Descending Montreal Center
02:23PM 45.4676 -73.5517 219° Southwest  Level FlightAware Approximate
02:23PM 45.6500 -73.4333 257° West 250 288 3,900  Level Montreal Center
02:29PM 45.4730 -73.7500 257° West 61 70 -720 Descending FlightAware
02:29PM 45.4690 -73.7540 215° Southwest 38 44  Level FlightAware
02:29PM 45.4670 -73.7560 215° Southwest 30 35  Level FlightAware